sensor_id;sensor_type;location;lat;lon;timestamp;pressure;altitude;pressure_sealevel;temperature;humidity
5905;BME280;2978;42.012;24.880;2023-03-13T00:01:58;99079.75;;;9.17;43.16
5905;BME280;2978;42.012;24.880;2023-03-13T00:04:25;99069.41;;;8.97;43.42
5905;BME280;2978;42.012;24.880;2023-03-13T00:06:50;99067.25;;;8.78;43.40
5905;BME280;2978;42.012;24.880;2023-03-13T00:09:16;99081.22;;;8.76;43.51
5905;BME280;2978;42.012;24.880;2023-03-13T00:11:43;99081.97;;;8.72;44.19
5905;BME280;2978;42.012;24.880;2023-03-13T00:14:09;99078.91;;;8.68;45.22
5905;BME280;2978;42.012;24.880;2023-03-13T00:16:35;99079.94;;;8.62;47.04
5905;BME280;2978;42.012;24.880;2023-03-13T00:19:02;99097.72;;;8.60;47.51
5905;BME280;2978;42.012;24.880;2023-03-13T00:21:29;99093.22;;;8.49;47.81
5905;BME280;2978;42.012;24.880;2023-03-13T00:23:55;99086.81;;;8.43;47.92
5905;BME280;2978;42.012;24.880;2023-03-13T00:26:23;99089.03;;;8.46;48.17
5905;BME280;2978;42.012;24.880;2023-03-13T00:28:49;99092.94;;;8.50;47.53
5905;BME280;2978;42.012;24.880;2023-03-13T00:31:16;99085.72;;;8.44;47.64
5905;BME280;2978;42.012;24.880;2023-03-13T00:33:44;99082.22;;;8.27;47.49
5905;BME280;2978;42.012;24.880;2023-03-13T00:36:12;99083.34;;;8.15;48.36
5905;BME280;2978;42.012;24.880;2023-03-13T00:38:38;99086.59;;;7.95;48.53
5905;BME280;2978;42.012;24.880;2023-03-13T00:41:27;99083.63;;;7.80;49.06
5905;BME280;2978;42.012;24.880;2023-03-13T00:43:54;99076.00;;;7.82;49.32
5905;BME280;2978;42.012;24.880;2023-03-13T00:46:22;99070.53;;;7.82;48.72
5905;BME280;2978;42.012;24.880;2023-03-13T00:48:48;99073.72;;;7.74;49.00
5905;BME280;2978;42.012;24.880;2023-03-13T00:51:15;99078.41;;;7.78;49.00
5905;BME280;2978;42.012;24.880;2023-03-13T00:53:44;99077.50;;;7.73;49.21
5905;BME280;2978;42.012;24.880;2023-03-13T00:56:18;99076.53;;;7.79;48.89
5905;BME280;2978;42.012;24.880;2023-03-13T00:58:45;99072.53;;;7.70;48.89
5905;BME280;2978;42.012;24.880;2023-03-13T01:01:15;99072.31;;;7.55;49.11
5905;BME280;2978;42.012;24.880;2023-03-13T01:03:43;99076.00;;;7.49;49.23
5905;BME280;2978;42.012;24.880;2023-03-13T01:06:11;99070.97;;;7.41;50.24
5905;BME280;2978;42.012;24.880;2023-03-13T01:08:37;99072.00;;;7.40;49.99
5905;BME280;2978;42.012;24.880;2023-03-13T01:11:11;99081.56;;;7.37;50.56
5905;BME280;2978;42.012;24.880;2023-03-13T01:13:37;99083.47;;;7.37;49.79
5905;BME280;2978;42.012;24.880;2023-03-13T01:16:04;99083.47;;;7.37;49.74
5905;BME280;2978;42.012;24.880;2023-03-13T01:18:30;99084.28;;;7.37;50.27
5905;BME280;2978;42.012;24.880;2023-03-13T01:20:55;99067.06;;;7.37;50.04
5905;BME280;2978;42.012;24.880;2023-03-13T01:23:21;99075.69;;;7.45;49.76
5905;BME280;2978;42.012;24.880;2023-03-13T01:25:46;99074.75;;;7.40;50.33
5905;BME280;2978;42.012;24.880;2023-03-13T01:28:12;99078.44;;;7.17;50.44
5905;BME280;2978;42.012;24.880;2023-03-13T01:30:37;99078.06;;;6.97;51.28
5905;BME280;2978;42.012;24.880;2023-03-13T01:33:02;99077.25;;;6.97;51.59
5905;BME280;2978;42.012;24.880;2023-03-13T01:35:28;99078.19;;;6.91;51.03
5905;BME280;2978;42.012;24.880;2023-03-13T01:37:53;99082.03;;;6.90;51.46
5905;BME280;2978;42.012;24.880;2023-03-13T01:40:19;99080.38;;;6.89;51.53
5905;BME280;2978;42.012;24.880;2023-03-13T01:42:53;99082.59;;;6.92;50.81
5905;BME280;2978;42.012;24.880;2023-03-13T01:48:15;99091.84;;;7.02;50.82
5905;BME280;2978;42.012;24.880;2023-03-13T01:50:40;99088.94;;;7.09;50.67
5905;BME280;2978;42.012;24.880;2023-03-13T01:53:06;99092.00;;;6.96;51.43
5905;BME280;2978;42.012;24.880;2023-03-13T01:55:31;99099.03;;;6.80;51.93
5905;BME280;2978;42.012;24.880;2023-03-13T01:57:58;99103.00;;;6.72;52.33
5905;BME280;2978;42.012;24.880;2023-03-13T02:00:26;99106.09;;;6.64;51.72
5905;BME280;2978;42.012;24.880;2023-03-13T02:02:56;99105.53;;;6.62;52.26
5905;BME280;2978;42.012;24.880;2023-03-13T02:05:26;99107.41;;;6.62;52.02
5905;BME280;2978;42.012;24.880;2023-03-13T02:08:00;99113.13;;;6.60;53.26
5905;BME280;2978;42.012;24.880;2023-03-13T02:10:29;99121.91;;;6.62;51.78
5905;BME280;2978;42.012;24.880;2023-03-13T02:12:56;99116.19;;;6.52;52.72
5905;BME280;2978;42.012;24.880;2023-03-13T02:15:24;99109.44;;;6.43;52.90
5905;BME280;2978;42.012;24.880;2023-03-13T02:17:52;99122.00;;;6.56;52.18
5905;BME280;2978;42.012;24.880;2023-03-13T02:20:20;99128.22;;;6.51;52.87
5905;BME280;2978;42.012;24.880;2023-03-13T02:23:09;99137.47;;;6.50;52.44
5905;BME280;2978;42.012;24.880;2023-03-13T02:28:10;99142.47;;;6.53;52.81
5905;BME280;2978;42.012;24.880;2023-03-13T02:30:37;99152.91;;;6.56;52.71
5905;BME280;2978;42.012;24.880;2023-03-13T02:33:03;99150.16;;;6.56;53.02
5905;BME280;2978;42.012;24.880;2023-03-13T02:35:29;99149.47;;;6.49;52.71
5905;BME280;2978;42.012;24.880;2023-03-13T02:37:58;99153.72;;;6.45;52.88
5905;BME280;2978;42.012;24.880;2023-03-13T02:40:33;99160.28;;;6.44;52.65
5905;BME280;2978;42.012;24.880;2023-03-13T02:43:01;99164.06;;;6.43;53.37
5905;BME280;2978;42.012;24.880;2023-03-13T02:45:27;99161.47;;;6.37;52.76
5905;BME280;2978;42.012;24.880;2023-03-13T02:47:52;99162.78;;;6.34;53.74
5905;BME280;2978;42.012;24.880;2023-03-13T02:50:18;99168.13;;;6.29;52.80
5905;BME280;2978;42.012;24.880;2023-03-13T02:52:50;99170.63;;;6.31;53.96
5905;BME280;2978;42.012;24.880;2023-03-13T02:55:26;99181.63;;;6.24;53.99
5905;BME280;2978;42.012;24.880;2023-03-13T02:57:52;99183.88;;;6.16;54.83
5905;BME280;2978;42.012;24.880;2023-03-13T03:00:18;99198.38;;;6.05;54.96
5905;BME280;2978;42.012;24.880;2023-03-13T03:02:44;99201.06;;;5.93;54.86
5905;BME280;2978;42.012;24.880;2023-03-13T03:05:11;99198.22;;;5.88;53.71
5905;BME280;2978;42.012;24.880;2023-03-13T03:07:36;99208.84;;;5.78;53.85
5905;BME280;2978;42.012;24.880;2023-03-13T03:10:03;99206.72;;;5.80;53.68
5905;BME280;2978;42.012;24.880;2023-03-13T03:12:28;99207.16;;;5.77;53.50
5905;BME280;2978;42.012;24.880;2023-03-13T03:14:54;99213.09;;;5.74;53.42
5905;BME280;2978;42.012;24.880;2023-03-13T03:17:19;99216.53;;;5.81;54.06
5905;BME280;2978;42.012;24.880;2023-03-13T03:19:45;99218.66;;;5.67;54.52
5905;BME280;2978;42.012;24.880;2023-03-13T03:22:10;99230.94;;;5.88;54.31
5905;BME280;2978;42.012;24.880;2023-03-13T03:24:36;99234.09;;;6.03;53.31
5905;BME280;2978;42.012;24.880;2023-03-13T03:27:01;99231.13;;;6.05;53.80
5905;BME280;2978;42.012;24.880;2023-03-13T03:29:27;99236.47;;;6.11;53.39
5905;BME280;2978;42.012;24.880;2023-03-13T03:31:52;99238.94;;;6.01;53.85
5905;BME280;2978;42.012;24.880;2023-03-13T03:34:18;99245.91;;;5.86;54.60
5905;BME280;2978;42.012;24.880;2023-03-13T03:36:44;99242.34;;;5.85;54.79
5905;BME280;2978;42.012;24.880;2023-03-13T03:39:09;99253.25;;;5.85;54.85
5905;BME280;2978;42.012;24.880;2023-03-13T03:41:34;99247.94;;;6.02;53.94
5905;BME280;2978;42.012;24.880;2023-03-13T03:44:02;99256.06;;;6.20;52.75
5905;BME280;2978;42.012;24.880;2023-03-13T03:46:27;99249.66;;;6.26;53.29
5905;BME280;2978;42.012;24.880;2023-03-13T03:48:53;99249.16;;;6.17;52.62
5905;BME280;2978;42.012;24.880;2023-03-13T03:51:19;99259.16;;;6.23;53.37
5905;BME280;2978;42.012;24.880;2023-03-13T03:53:44;99269.47;;;6.21;53.05
5905;BME280;2978;42.012;24.880;2023-03-13T03:56:10;99267.50;;;5.99;53.54
5905;BME280;2978;42.012;24.880;2023-03-13T03:58:35;99272.25;;;5.92;54.45
5905;BME280;2978;42.012;24.880;2023-03-13T04:01:01;99259.81;;;5.78;54.25
5905;BME280;2978;42.012;24.880;2023-03-13T04:03:26;99270.38;;;5.74;54.48
5905;BME280;2978;42.012;24.880;2023-03-13T04:05:52;99267.97;;;5.66;54.77
5905;BME280;2978;42.012;24.880;2023-03-13T04:08:17;99277.38;;;5.70;55.00
5905;BME280;2978;42.012;24.880;2023-03-13T04:10:43;99269.38;;;5.68;55.07
5905;BME280;2978;42.012;24.880;2023-03-13T04:13:08;99258.72;;;5.67;55.54
5905;BME280;2978;42.012;24.880;2023-03-13T04:15:33;99265.88;;;5.80;55.62
5905;BME280;2978;42.012;24.880;2023-03-13T04:17:59;99282.34;;;5.73;56.17
5905;BME280;2978;42.012;24.880;2023-03-13T04:20:24;99280.66;;;5.72;57.02
5905;BME280;2978;42.012;24.880;2023-03-13T04:22:50;99291.31;;;5.62;57.03
5905;BME280;2978;42.012;24.880;2023-03-13T04:25:16;99286.13;;;5.72;56.75
5905;BME280;2978;42.012;24.880;2023-03-13T04:27:41;99290.19;;;5.81;56.49
5905;BME280;2978;42.012;24.880;2023-03-13T04:30:07;99295.97;;;5.91;56.01
5905;BME280;2978;42.012;24.880;2023-03-13T04:32:33;99302.69;;;6.18;55.27
5905;BME280;2978;42.012;24.880;2023-03-13T04:34:59;99307.22;;;6.24;54.63
5905;BME280;2978;42.012;24.880;2023-03-13T04:37:24;99324.31;;;6.31;53.53
5905;BME280;2978;42.012;24.880;2023-03-13T04:39:50;99321.94;;;6.23;54.48
5905;BME280;2978;42.012;24.880;2023-03-13T04:42:15;99318.72;;;6.15;54.43
5905;BME280;2978;42.012;24.880;2023-03-13T04:44:41;99331.84;;;6.06;56.21
5905;BME280;2978;42.012;24.880;2023-03-13T04:47:06;99334.47;;;6.01;56.83
5905;BME280;2978;42.012;24.880;2023-03-13T04:49:32;99333.84;;;5.99;57.73
5905;BME280;2978;42.012;24.880;2023-03-13T04:51:57;99341.44;;;5.97;57.31
5905;BME280;2978;42.012;24.880;2023-03-13T04:54:23;99344.44;;;6.07;56.99
5905;BME280;2978;42.012;24.880;2023-03-13T04:56:48;99344.31;;;6.14;56.16
5905;BME280;2978;42.012;24.880;2023-03-13T04:59:14;99343.88;;;6.17;56.12
5905;BME280;2978;42.012;24.880;2023-03-13T05:01:41;99352.75;;;6.12;56.77
5905;BME280;2978;42.012;24.880;2023-03-13T05:04:07;99345.13;;;6.03;56.78
5905;BME280;2978;42.012;24.880;2023-03-13T05:06:32;99352.94;;;5.99;56.32
5905;BME280;2978;42.012;24.880;2023-03-13T05:08:58;99354.50;;;6.07;56.26
5905;BME280;2978;42.012;24.880;2023-03-13T05:11:23;99362.00;;;6.11;56.37
5905;BME280;2978;42.012;24.880;2023-03-13T05:13:49;99363.44;;;6.14;55.68
5905;BME280;2978;42.012;24.880;2023-03-13T05:16:14;99359.59;;;6.33;55.95
5905;BME280;2978;42.012;24.880;2023-03-13T05:18:40;99368.13;;;6.36;56.05
5905;BME280;2978;42.012;24.880;2023-03-13T05:21:06;99358.16;;;6.30;55.94
5905;BME280;2978;42.012;24.880;2023-03-13T05:23:31;99371.66;;;6.55;54.13
5905;BME280;2978;42.012;24.880;2023-03-13T05:25:57;99376.88;;;6.56;54.95
5905;BME280;2978;42.012;24.880;2023-03-13T05:28:22;99370.94;;;6.59;54.98
5905;BME280;2978;42.012;24.880;2023-03-13T05:30:47;99372.13;;;6.63;54.34
5905;BME280;2978;42.012;24.880;2023-03-13T05:33:13;99378.94;;;6.84;53.46
5905;BME280;2978;42.012;24.880;2023-03-13T05:35:38;99372.53;;;6.90;52.98
5905;BME280;2978;42.012;24.880;2023-03-13T05:38:04;99374.41;;;7.01;52.57
5905;BME280;2978;42.012;24.880;2023-03-13T05:40:29;99378.34;;;7.17;52.69
5905;BME280;2978;42.012;24.880;2023-03-13T05:42:55;99383.13;;;7.21;52.30
5905;BME280;2978;42.012;24.880;2023-03-13T05:45:21;99384.31;;;7.25;52.31
5905;BME280;2978;42.012;24.880;2023-03-13T05:47:47;99382.84;;;7.34;52.46
5905;BME280;2978;42.012;24.880;2023-03-13T05:50:12;99390.97;;;7.41;52.51
5905;BME280;2978;42.012;24.880;2023-03-13T05:52:38;99395.25;;;7.37;51.99
5905;BME280;2978;42.012;24.880;2023-03-13T05:55:03;99393.69;;;7.29;52.17
5905;BME280;2978;42.012;24.880;2023-03-13T05:57:29;99395.72;;;7.34;52.11
5905;BME280;2978;42.012;24.880;2023-03-13T05:59:54;99402.84;;;7.35;51.68
5905;BME280;2978;42.012;24.880;2023-03-13T06:02:20;99416.16;;;7.43;52.00
5905;BME280;2978;42.012;24.880;2023-03-13T06:04:46;99416.03;;;7.49;51.66
5905;BME280;2978;42.012;24.880;2023-03-13T06:07:12;99416.50;;;7.58;50.86
5905;BME280;2978;42.012;24.880;2023-03-13T06:09:37;99411.50;;;7.66;50.59
5905;BME280;2978;42.012;24.880;2023-03-13T06:12:03;99421.34;;;7.79;50.88
5905;BME280;2978;42.012;24.880;2023-03-13T06:14:31;99424.00;;;7.74;50.64
5905;BME280;2978;42.012;24.880;2023-03-13T06:17:04;99430.41;;;7.68;51.19
5905;BME280;2978;42.012;24.880;2023-03-13T06:19:30;99419.59;;;7.61;51.26
5905;BME280;2978;42.012;24.880;2023-03-13T06:21:55;99424.69;;;7.81;49.42
5905;BME280;2978;42.012;24.880;2023-03-13T06:24:21;99445.56;;;7.98;48.72
5905;BME280;2978;42.012;24.880;2023-03-13T06:26:48;99442.44;;;8.18;47.25
5905;BME280;2978;42.012;24.880;2023-03-13T06:29:14;99452.47;;;8.24;46.82
5905;BME280;2978;42.012;24.880;2023-03-13T06:31:40;99449.06;;;8.45;46.36
5905;BME280;2978;42.012;24.880;2023-03-13T06:34:05;99453.16;;;8.59;46.14
5905;BME280;2978;42.012;24.880;2023-03-13T06:36:31;99444.53;;;8.67;45.89
5905;BME280;2978;42.012;24.880;2023-03-13T06:39:17;99443.66;;;8.78;45.18
5905;BME280;2978;42.012;24.880;2023-03-13T06:41:43;99435.50;;;8.83;45.18
5905;BME280;2978;42.012;24.880;2023-03-13T06:44:08;99440.00;;;8.89;45.91
5905;BME280;2978;42.012;24.880;2023-03-13T06:46:34;99441.72;;;8.51;46.31
5905;BME280;2978;42.012;24.880;2023-03-13T06:48:59;99429.19;;;8.38;47.07
5905;BME280;2978;42.012;24.880;2023-03-13T06:51:29;99440.81;;;8.73;46.33
5905;BME280;2978;42.012;24.880;2023-03-13T06:53:54;99431.69;;;8.84;45.75
5905;BME280;2978;42.012;24.880;2023-03-13T06:56:19;99422.88;;;8.82;46.25
5905;BME280;2978;42.012;24.880;2023-03-13T06:58:47;99430.69;;;8.90;46.16
5905;BME280;2978;42.012;24.880;2023-03-13T07:01:14;99429.59;;;8.91;45.57
5905;BME280;2978;42.012;24.880;2023-03-13T07:03:40;99432.50;;;9.01;45.94
5905;BME280;2978;42.012;24.880;2023-03-13T07:06:06;99439.50;;;9.09;45.65
5905;BME280;2978;42.012;24.880;2023-03-13T07:08:33;99432.53;;;9.18;45.29
5905;BME280;2978;42.012;24.880;2023-03-13T07:11:02;99433.13;;;9.20;44.68
5905;BME280;2978;42.012;24.880;2023-03-13T07:13:28;99430.34;;;9.37;44.93
5905;BME280;2978;42.012;24.880;2023-03-13T07:15:54;99435.44;;;9.45;44.34
5905;BME280;2978;42.012;24.880;2023-03-13T07:18:20;99441.16;;;9.60;44.96
5905;BME280;2978;42.012;24.880;2023-03-13T07:20:57;99430.81;;;9.67;44.51
5905;BME280;2978;42.012;24.880;2023-03-13T07:26:45;99427.84;;;9.90;44.74
5905;BME280;2978;42.012;24.880;2023-03-13T07:29:10;99424.34;;;9.94;44.13
5905;BME280;2978;42.012;24.880;2023-03-13T07:31:36;99428.56;;;10.02;44.18
5905;BME280;2978;42.012;24.880;2023-03-13T07:34:03;99427.88;;;10.11;44.16
5905;BME280;2978;42.012;24.880;2023-03-13T07:36:28;99427.19;;;10.21;43.46
5905;BME280;2978;42.012;24.880;2023-03-13T07:38:55;99431.63;;;10.27;44.03
5905;BME280;2978;42.012;24.880;2023-03-13T07:51:25;99421.00;;;10.57;43.25
5905;BME280;2978;42.012;24.880;2023-03-13T07:53:52;99416.13;;;10.64;42.91
5905;BME280;2978;42.012;24.880;2023-03-13T07:56:20;99414.78;;;10.67;43.24
5905;BME280;2978;42.012;24.880;2023-03-13T07:58:46;99409.66;;;10.75;43.19
5905;BME280;2978;42.012;24.880;2023-03-13T08:01:15;99409.72;;;10.85;43.17
5905;BME280;2978;42.012;24.880;2023-03-13T08:03:42;99419.09;;;10.84;43.02
5905;BME280;2978;42.012;24.880;2023-03-13T08:06:12;99414.34;;;10.80;43.18
5905;BME280;2978;42.012;24.880;2023-03-13T08:08:39;99411.91;;;10.83;42.15
5905;BME280;2978;42.012;24.880;2023-03-13T08:11:07;99416.34;;;10.84;42.73
5905;BME280;2978;42.012;24.880;2023-03-13T08:13:34;99421.94;;;10.94;42.51
5905;BME280;2978;42.012;24.880;2023-03-13T08:16:06;99427.44;;;10.94;42.40
5905;BME280;2978;42.012;24.880;2023-03-13T08:18:34;99427.06;;;10.86;42.36
5905;BME280;2978;42.012;24.880;2023-03-13T08:21:04;99405.91;;;10.91;42.15
5905;BME280;2978;42.012;24.880;2023-03-13T08:23:31;99413.19;;;11.02;41.86
5905;BME280;2978;42.012;24.880;2023-03-13T08:26:04;99408.28;;;11.09;41.44
5905;BME280;2978;42.012;24.880;2023-03-13T08:28:30;99407.59;;;11.24;41.58
5905;BME280;2978;42.012;24.880;2023-03-13T08:30:56;99398.38;;;11.40;41.51
5905;BME280;2978;42.012;24.880;2023-03-13T08:33:21;99403.09;;;11.50;40.88
5905;BME280;2978;42.012;24.880;2023-03-13T08:35:47;99396.78;;;11.54;40.90
5905;BME280;2978;42.012;24.880;2023-03-13T08:38:12;99411.41;;;11.60;41.02
5905;BME280;2978;42.012;24.880;2023-03-13T08:40:38;99410.25;;;11.51;40.12
5905;BME280;2978;42.012;24.880;2023-03-13T08:43:03;99409.19;;;11.57;39.77
5905;BME280;2978;42.012;24.880;2023-03-13T08:45:29;99408.78;;;11.70;39.85
5905;BME280;2978;42.012;24.880;2023-03-13T08:47:54;99401.53;;;11.64;39.26
5905;BME280;2978;42.012;24.880;2023-03-13T08:50:19;99402.69;;;11.31;39.59
5905;BME280;2978;42.012;24.880;2023-03-13T08:52:45;99402.75;;;11.41;39.68
5905;BME280;2978;42.012;24.880;2023-03-13T08:55:10;99398.97;;;11.47;39.84
5905;BME280;2978;42.012;24.880;2023-03-13T08:57:36;99400.38;;;11.55;38.57
5905;BME280;2978;42.012;24.880;2023-03-13T09:00:02;99398.75;;;11.59;38.47
5905;BME280;2978;42.012;24.880;2023-03-13T09:02:30;99397.81;;;11.43;38.74
5905;BME280;2978;42.012;24.880;2023-03-13T09:04:55;99399.47;;;11.44;38.94
5905;BME280;2978;42.012;24.880;2023-03-13T09:07:20;99397.34;;;11.56;38.85
5905;BME280;2978;42.012;24.880;2023-03-13T09:09:46;99394.88;;;11.60;38.35
5905;BME280;2978;42.012;24.880;2023-03-13T09:12:11;99391.63;;;11.63;37.96
5905;BME280;2978;42.012;24.880;2023-03-13T09:14:37;99404.94;;;11.76;38.06
5905;BME280;2978;42.012;24.880;2023-03-13T09:17:02;99402.69;;;11.68;38.06
5905;BME280;2978;42.012;24.880;2023-03-13T09:19:28;99391.13;;;11.66;36.55
5905;BME280;2978;42.012;24.880;2023-03-13T09:21:54;99383.56;;;11.51;37.76
5905;BME280;2978;42.012;24.880;2023-03-13T09:24:19;99393.72;;;11.51;37.95
5905;BME280;2978;42.012;24.880;2023-03-13T09:26:44;99395.41;;;11.52;37.43
5905;BME280;2978;42.012;24.880;2023-03-13T09:29:10;99393.50;;;11.57;37.22
5905;BME280;2978;42.012;24.880;2023-03-13T09:31:35;99398.19;;;11.57;37.58
5905;BME280;2978;42.012;24.880;2023-03-13T09:34:02;99388.50;;;11.49;37.51
5905;BME280;2978;42.012;24.880;2023-03-13T09:36:28;99392.38;;;11.53;37.10
5905;BME280;2978;42.012;24.880;2023-03-13T09:38:55;99393.47;;;11.47;36.92
5905;BME280;2978;42.012;24.880;2023-03-13T09:41:40;99390.41;;;11.44;36.93
5905;BME280;2978;42.012;24.880;2023-03-13T09:46:54;99378.81;;;11.42;35.85
5905;BME280;2978;42.012;24.880;2023-03-13T09:49:41;99390.44;;;11.49;35.36
5905;BME280;2978;42.012;24.880;2023-03-13T09:52:34;99380.47;;;11.43;34.12
5905;BME280;2978;42.012;24.880;2023-03-13T09:55:13;99383.78;;;11.45;34.42
5905;BME280;2978;42.012;24.880;2023-03-13T09:57:52;99372.56;;;11.56;34.50
5905;BME280;2978;42.012;24.880;2023-03-13T10:02:56;99367.88;;;11.52;34.21
5905;BME280;2978;42.012;24.880;2023-03-13T10:05:28;99361.25;;;11.53;34.17
5905;BME280;2978;42.012;24.880;2023-03-13T10:08:24;99360.75;;;11.61;33.97
5905;BME280;2978;42.012;24.880;2023-03-13T10:18:55;99338.25;;;11.74;31.35
5905;BME280;2978;42.012;24.880;2023-03-13T10:21:23;99326.75;;;11.82;31.59
5905;BME280;2978;42.012;24.880;2023-03-13T10:24:24;99323.47;;;11.95;31.46
5905;BME280;2978;42.012;24.880;2023-03-13T10:26:55;99321.84;;;11.94;32.14
5905;BME280;2978;42.012;24.880;2023-03-13T10:29:26;99335.09;;;12.02;31.70
5905;BME280;2978;42.012;24.880;2023-03-13T10:32:05;99329.59;;;12.12;31.34
5905;BME280;2978;42.012;24.880;2023-03-13T10:37:15;99327.19;;;12.25;31.43
5905;BME280;2978;42.012;24.880;2023-03-13T10:39:40;99331.28;;;12.23;31.47
5905;BME280;2978;42.012;24.880;2023-03-13T10:42:17;99331.28;;;12.23;31.48
5905;BME280;2978;42.012;24.880;2023-03-13T10:44:44;99316.94;;;12.11;30.82
5905;BME280;2978;42.012;24.880;2023-03-13T10:47:12;99306.47;;;12.13;30.30
5905;BME280;2978;42.012;24.880;2023-03-13T10:49:50;99309.25;;;12.38;30.89
5905;BME280;2978;42.012;24.880;2023-03-13T10:52:46;99309.81;;;12.40;30.66
5905;BME280;2978;42.012;24.880;2023-03-13T10:55:16;99301.81;;;12.38;31.05
5905;BME280;2978;42.012;24.880;2023-03-13T11:02:46;99302.91;;;12.27;32.84
5905;BME280;2978;42.012;24.880;2023-03-13T11:07:51;99297.66;;;12.21;32.75
5905;BME280;2978;42.012;24.880;2023-03-13T11:10:18;99284.44;;;12.23;32.51
5905;BME280;2978;42.012;24.880;2023-03-13T11:12:54;99275.34;;;12.32;32.11
5905;BME280;2978;42.012;24.880;2023-03-13T11:21:18;99262.94;;;12.40;30.61
5905;BME280;2978;42.012;24.880;2023-03-13T11:23:53;99262.94;;;12.35;29.94
5905;BME280;2978;42.012;24.880;2023-03-13T11:29:09;99249.44;;;12.38;30.38
5905;BME280;2978;42.012;24.880;2023-03-13T11:32:01;99256.06;;;12.48;30.89
5905;BME280;2978;42.012;24.880;2023-03-13T11:34:41;99248.59;;;12.38;30.54
5905;BME280;2978;42.012;24.880;2023-03-13T11:57:29;99233.16;;;12.67;27.97
5905;BME280;2978;42.012;24.880;2023-03-13T12:05:59;99207.19;;;12.98;27.10
5905;BME280;2978;42.012;24.880;2023-03-13T12:08:44;99190.09;;;12.91;27.13
5905;BME280;2978;42.012;24.880;2023-03-13T12:11:25;99194.50;;;12.87;27.16
5905;BME280;2978;42.012;24.880;2023-03-13T12:14:01;99190.63;;;12.83;27.01
5905;BME280;2978;42.012;24.880;2023-03-13T12:19:16;99191.78;;;12.72;26.97
5905;BME280;2978;42.012;24.880;2023-03-13T12:21:48;99193.94;;;12.90;26.63
5905;BME280;2978;42.012;24.880;2023-03-13T12:26:56;99195.34;;;12.88;27.45
5905;BME280;2978;42.012;24.880;2023-03-13T12:29:29;99194.19;;;12.94;27.17
5905;BME280;2978;42.012;24.880;2023-03-13T12:35:21;99188.41;;;12.90;27.20
5905;BME280;2978;42.012;24.880;2023-03-13T12:40:40;99192.28;;;12.89;26.55
5905;BME280;2978;42.012;24.880;2023-03-13T12:43:22;99188.41;;;12.90;26.84
5905;BME280;2978;42.012;24.880;2023-03-13T12:54:10;99192.81;;;13.06;27.39
5905;BME280;2978;42.012;24.880;2023-03-13T12:59:33;99174.03;;;13.13;26.10
5905;BME280;2978;42.012;24.880;2023-03-13T13:02:00;99176.53;;;13.00;26.64
5905;BME280;2978;42.012;24.880;2023-03-13T13:04:30;99178.19;;;13.01;26.35
5905;BME280;2978;42.012;24.880;2023-03-13T13:10:25;99179.28;;;13.00;27.25
5905;BME280;2978;42.012;24.880;2023-03-13T13:13:29;99187.31;;;12.96;27.45
5905;BME280;2978;42.012;24.880;2023-03-13T13:16:01;99186.19;;;13.02;26.99
5905;BME280;2978;42.012;24.880;2023-03-13T13:18:31;99181.78;;;12.96;27.16
5905;BME280;2978;42.012;24.880;2023-03-13T13:21:18;99174.63;;;13.05;27.15
5905;BME280;2978;42.012;24.880;2023-03-13T13:23:44;99172.41;;;13.07;26.50
5905;BME280;2978;42.012;24.880;2023-03-13T13:28:59;99188.38;;;13.15;26.34
5905;BME280;2978;42.012;24.880;2023-03-13T13:31:45;99169.91;;;13.16;26.30
5905;BME280;2978;42.012;24.880;2023-03-13T13:45:03;99144.16;;;13.25;26.11
5905;BME280;2978;42.012;24.880;2023-03-13T13:47:30;99154.38;;;13.30;25.87
5905;BME280;2978;42.012;24.880;2023-03-13T13:49:58;99149.13;;;13.33;26.10
5905;BME280;2978;42.012;24.880;2023-03-13T13:52:42;99151.31;;;13.36;25.51
5905;BME280;2978;42.012;24.880;2023-03-13T13:55:40;99150.44;;;13.41;25.51
5905;BME280;2978;42.012;24.880;2023-03-13T13:58:22;99153.16;;;13.46;25.80
5905;BME280;2978;42.012;24.880;2023-03-13T14:00:58;99142.63;;;13.53;25.67
5905;BME280;2978;42.012;24.880;2023-03-13T14:03:27;99150.09;;;13.57;25.52
5905;BME280;2978;42.012;24.880;2023-03-13T14:05:58;99147.34;;;13.52;25.34
5905;BME280;2978;42.012;24.880;2023-03-13T14:08:30;99151.81;;;13.43;25.32
5905;BME280;2978;42.012;24.880;2023-03-13T14:11:37;99152.41;;;13.35;25.47
5905;BME280;2978;42.012;24.880;2023-03-13T14:20:38;99141.59;;;13.44;25.89
5905;BME280;2978;42.012;24.880;2023-03-13T14:23:09;99142.41;;;13.44;25.65
5905;BME280;2978;42.012;24.880;2023-03-13T14:25:49;99137.44;;;13.46;25.25
5905;BME280;2978;42.012;24.880;2023-03-13T14:28:23;99139.34;;;13.46;26.01
5905;BME280;2978;42.012;24.880;2023-03-13T14:31:01;99141.09;;;13.37;26.22
5905;BME280;2978;42.012;24.880;2023-03-13T14:33:26;99139.13;;;13.37;25.89
5905;BME280;2978;42.012;24.880;2023-03-13T14:35:52;99135.03;;;13.35;26.07
5905;BME280;2978;42.012;24.880;2023-03-13T14:38:23;99130.31;;;13.40;25.70
5905;BME280;2978;42.012;24.880;2023-03-13T14:40:50;99127.78;;;13.44;25.42
5905;BME280;2978;42.012;24.880;2023-03-13T14:46:27;99132.75;;;13.47;26.06
5905;BME280;2978;42.012;24.880;2023-03-13T14:48:54;99138.53;;;13.50;26.24
5905;BME280;2978;42.012;24.880;2023-03-13T14:51:26;99125.00;;;13.49;26.26
5905;BME280;2978;42.012;24.880;2023-03-13T14:53:55;99131.34;;;13.49;26.18
5905;BME280;2978;42.012;24.880;2023-03-13T14:56:36;99133.50;;;13.57;26.52
5905;BME280;2978;42.012;24.880;2023-03-13T14:59:23;99141.50;;;13.59;26.62
5905;BME280;2978;42.012;24.880;2023-03-13T15:02:19;99144.56;;;13.57;26.53
5905;BME280;2978;42.012;24.880;2023-03-13T15:04:51;99134.09;;;13.54;26.51
5905;BME280;2978;42.012;24.880;2023-03-13T15:07:21;99134.06;;;13.60;26.71
5905;BME280;2978;42.012;24.880;2023-03-13T15:09:48;99129.31;;;13.65;26.86
5905;BME280;2978;42.012;24.880;2023-03-13T15:12:29;99137.38;;;13.56;26.95
5905;BME280;2978;42.012;24.880;2023-03-13T15:14:56;99124.78;;;13.40;26.90
5905;BME280;2978;42.012;24.880;2023-03-13T15:17:24;99136.59;;;13.46;26.74
5905;BME280;2978;42.012;24.880;2023-03-13T15:19:53;99141.59;;;13.39;26.94
5905;BME280;2978;42.012;24.880;2023-03-13T15:22:24;99138.06;;;13.33;27.02
5905;BME280;2978;42.012;24.880;2023-03-13T15:24:50;99141.88;;;13.47;26.53
5905;BME280;2978;42.012;24.880;2023-03-13T15:27:17;99137.13;;;13.53;25.90
5905;BME280;2978;42.012;24.880;2023-03-13T15:33:01;99135.94;;;13.15;26.70
5905;BME280;2978;42.012;24.880;2023-03-13T15:35:28;99135.44;;;13.03;26.86
5905;BME280;2978;42.012;24.880;2023-03-13T15:37:56;99136.78;;;12.96;27.62